sensor_id;sensor_type;location;lat;lon;timestamp;P1;durP1;ratioP1;P2;durP2;ratioP2
26774;SDS011;14362;51.902;7.626;2022-11-23T00:01:32;3.45;;;1.40;;
26774;SDS011;14362;51.902;7.626;2022-11-23T00:05:35;4.00;;;1.50;;
26774;SDS011;14362;51.902;7.626;2022-11-23T00:09:36;7.47;;;1.73;;
26774;SDS011;14362;51.902;7.626;2022-11-23T00:13:39;3.90;;;1.60;;
26774;SDS011;14362;51.902;7.626;2022-11-23T00:17:41;3.75;;;1.70;;
26774;SDS011;14362;51.902;7.626;2022-11-23T00:21:43;6.10;;;1.65;;
26774;SDS011;14362;51.902;7.626;2022-11-23T00:25:44;6.43;;;1.75;;
26774;SDS011;14362;51.902;7.626;2022-11-23T00:29:47;4.88;;;2.03;;
26774;SDS011;14362;51.902;7.626;2022-11-23T00:33:48;3.97;;;2.17;;
26774;SDS011;14362;51.902;7.626;2022-11-23T00:37:51;6.10;;;1.67;;
26774;SDS011;14362;51.902;7.626;2022-11-23T00:41:52;6.03;;;1.73;;
26774;SDS011;14362;51.902;7.626;2022-11-23T00:46:05;7.50;;;1.98;;
26774;SDS011;14362;51.902;7.626;2022-11-23T00:50:08;3.53;;;1.97;;
26774;SDS011;14362;51.902;7.626;2022-11-23T00:54:09;5.88;;;1.95;;
26774;SDS011;14362;51.902;7.626;2022-11-23T00:58:12;9.27;;;3.38;;
26774;SDS011;14362;51.902;7.626;2022-11-23T01:02:14;6.43;;;1.98;;
26774;SDS011;14362;51.902;7.626;2022-11-23T01:06:17;5.50;;;1.67;;
26774;SDS011;14362;51.902;7.626;2022-11-23T01:10:19;4.93;;;1.77;;
26774;SDS011;14362;51.902;7.626;2022-11-23T01:14:21;5.38;;;2.25;;
26774;SDS011;14362;51.902;7.626;2022-11-23T01:18:24;6.65;;;2.00;;
26774;SDS011;14362;51.902;7.626;2022-11-23T01:22:26;4.65;;;1.85;;
26774;SDS011;14362;51.902;7.626;2022-11-23T01:26:27;6.60;;;1.98;;
26774;SDS011;14362;51.902;7.626;2022-11-23T01:30:29;6.22;;;1.88;;
26774;SDS011;14362;51.902;7.626;2022-11-23T01:34:31;3.50;;;1.75;;
26774;SDS011;14362;51.902;7.626;2022-11-23T01:38:33;5.10;;;1.80;;
26774;SDS011;14362;51.902;7.626;2022-11-23T01:42:46;7.05;;;1.88;;
26774;SDS011;14362;51.902;7.626;2022-11-23T01:46:52;6.93;;;2.22;;
26774;SDS011;14362;51.902;7.626;2022-11-23T01:50:55;4.57;;;1.98;;
26774;SDS011;14362;51.902;7.626;2022-11-23T01:54:59;5.30;;;2.45;;
26774;SDS011;14362;51.902;7.626;2022-11-23T01:59:01;5.63;;;1.98;;
26774;SDS011;14362;51.902;7.626;2022-11-23T02:03:04;8.23;;;2.13;;
26774;SDS011;14362;51.902;7.626;2022-11-23T02:07:08;6.03;;;2.58;;
26774;SDS011;14362;51.902;7.626;2022-11-23T02:11:11;6.75;;;2.35;;
26774;SDS011;14362;51.902;7.626;2022-11-23T02:15:13;5.88;;;2.10;;
26774;SDS011;14362;51.902;7.626;2022-11-23T02:19:16;13.88;;;3.08;;
26774;SDS011;14362;51.902;7.626;2022-11-23T02:23:28;7.53;;;2.85;;
26774;SDS011;14362;51.902;7.626;2022-11-23T02:27:35;7.50;;;2.40;;
26774;SDS011;14362;51.902;7.626;2022-11-23T02:31:37;6.47;;;2.25;;
26774;SDS011;14362;51.902;7.626;2022-11-23T02:35:45;7.20;;;2.28;;
26774;SDS011;14362;51.902;7.626;2022-11-23T02:39:48;7.78;;;2.67;;
26774;SDS011;14362;51.902;7.626;2022-11-23T02:43:53;9.80;;;2.65;;
26774;SDS011;14362;51.902;7.626;2022-11-23T02:51:58;7.22;;;2.47;;
26774;SDS011;14362;51.902;7.626;2022-11-23T02:55:59;9.88;;;3.17;;
26774;SDS011;14362;51.902;7.626;2022-11-23T03:00:02;9.02;;;2.60;;
26774;SDS011;14362;51.902;7.626;2022-11-23T03:04:05;7.40;;;2.27;;
26774;SDS011;14362;51.902;7.626;2022-11-23T03:08:06;9.27;;;2.78;;
26774;SDS011;14362;51.902;7.626;2022-11-23T03:12:08;6.90;;;2.45;;
26774;SDS011;14362;51.902;7.626;2022-11-23T03:16:11;7.03;;;2.70;;
26774;SDS011;14362;51.902;7.626;2022-11-23T03:20:12;8.75;;;2.97;;
26774;SDS011;14362;51.902;7.626;2022-11-23T03:24:13;9.43;;;2.70;;
26774;SDS011;14362;51.902;7.626;2022-11-23T03:28:16;5.50;;;2.60;;
26774;SDS011;14362;51.902;7.626;2022-11-23T03:32:19;10.52;;;2.70;;
26774;SDS011;14362;51.902;7.626;2022-11-23T03:36:20;8.32;;;2.40;;
26774;SDS011;14362;51.902;7.626;2022-11-23T03:40:21;5.82;;;2.20;;
26774;SDS011;14362;51.902;7.626;2022-11-23T03:44:23;7.95;;;3.00;;
26774;SDS011;14362;51.902;7.626;2022-11-23T03:48:25;6.82;;;2.88;;
26774;SDS011;14362;51.902;7.626;2022-11-23T03:52:27;5.97;;;2.30;;
26774;SDS011;14362;51.902;7.626;2022-11-23T03:56:28;7.40;;;2.50;;
26774;SDS011;14362;51.902;7.626;2022-11-23T04:00:30;7.28;;;2.40;;
26774;SDS011;14362;51.902;7.626;2022-11-23T04:04:33;4.72;;;2.40;;
26774;SDS011;14362;51.902;7.626;2022-11-23T04:08:34;9.32;;;3.05;;
26774;SDS011;14362;51.902;7.626;2022-11-23T04:12:36;6.40;;;2.28;;
26774;SDS011;14362;51.902;7.626;2022-11-23T04:16:37;5.30;;;2.20;;
26774;SDS011;14362;51.902;7.626;2022-11-23T04:20:40;9.65;;;2.47;;
26774;SDS011;14362;51.902;7.626;2022-11-23T04:24:41;6.45;;;2.70;;
26774;SDS011;14362;51.902;7.626;2022-11-23T04:28:43;9.05;;;2.60;;
26774;SDS011;14362;51.902;7.626;2022-11-23T04:32:44;6.38;;;2.45;;
26774;SDS011;14362;51.902;7.626;2022-11-23T04:36:47;4.93;;;2.50;;
26774;SDS011;14362;51.902;7.626;2022-11-23T04:40:48;6.95;;;2.72;;
26774;SDS011;14362;51.902;7.626;2022-11-23T04:44:50;4.43;;;2.00;;
26774;SDS011;14362;51.902;7.626;2022-11-23T04:48:51;9.63;;;3.13;;
26774;SDS011;14362;51.902;7.626;2022-11-23T04:52:54;7.95;;;2.63;;
26774;SDS011;14362;51.902;7.626;2022-11-23T04:56:55;7.07;;;3.25;;
26774;SDS011;14362;51.902;7.626;2022-11-23T05:00:57;12.35;;;3.45;;
26774;SDS011;14362;51.902;7.626;2022-11-23T05:04:59;4.85;;;3.72;;
26774;SDS011;14362;51.902;7.626;2022-11-23T05:09:01;7.60;;;4.13;;
26774;SDS011;14362;51.902;7.626;2022-11-23T05:13:03;5.43;;;3.78;;
26774;SDS011;14362;51.902;7.626;2022-11-23T05:17:04;6.80;;;3.67;;
26774;SDS011;14362;51.902;7.626;2022-11-23T05:21:06;7.97;;;4.00;;
26774;SDS011;14362;51.902;7.626;2022-11-23T05:25:09;10.27;;;4.45;;
26774;SDS011;14362;51.902;7.626;2022-11-23T05:29:10;7.30;;;4.55;;
26774;SDS011;14362;51.902;7.626;2022-11-23T05:33:12;6.43;;;3.75;;
26774;SDS011;14362;51.902;7.626;2022-11-23T05:37:13;6.68;;;3.30;;
26774;SDS011;14362;51.902;7.626;2022-11-23T05:41:16;10.75;;;3.15;;
26774;SDS011;14362;51.902;7.626;2022-11-23T05:45:17;5.65;;;2.63;;
26774;SDS011;14362;51.902;7.626;2022-11-23T05:49:19;5.50;;;2.60;;
26774;SDS011;14362;51.902;7.626;2022-11-23T05:53:20;7.05;;;2.85;;
26774;SDS011;14362;51.902;7.626;2022-11-23T05:57:23;4.70;;;2.80;;
26774;SDS011;14362;51.902;7.626;2022-11-23T06:01:24;8.65;;;3.30;;
26774;SDS011;14362;51.902;7.626;2022-11-23T06:05:26;4.95;;;2.88;;
26774;SDS011;14362;51.902;7.626;2022-11-23T06:09:27;5.38;;;3.03;;
26774;SDS011;14362;51.902;7.626;2022-11-23T06:13:30;5.55;;;2.88;;
26774;SDS011;14362;51.902;7.626;2022-11-23T06:17:32;6.63;;;3.60;;
26774;SDS011;14362;51.902;7.626;2022-11-23T06:21:33;7.78;;;3.10;;
26774;SDS011;14362;51.902;7.626;2022-11-23T06:25:35;8.32;;;3.88;;
26774;SDS011;14362;51.902;7.626;2022-11-23T06:29:39;6.65;;;3.45;;
26774;SDS011;14362;51.902;7.626;2022-11-23T06:33:41;5.25;;;2.95;;
26774;SDS011;14362;51.902;7.626;2022-11-23T06:37:42;6.97;;;3.80;;
26774;SDS011;14362;51.902;7.626;2022-11-23T06:41:43;5.78;;;3.30;;
26774;SDS011;14362;51.902;7.626;2022-11-23T06:45:46;8.30;;;2.90;;
26774;SDS011;14362;51.902;7.626;2022-11-23T06:49:48;9.77;;;3.75;;
26774;SDS011;14362;51.902;7.626;2022-11-23T06:53:49;6.55;;;3.53;;
26774;SDS011;14362;51.902;7.626;2022-11-23T06:57:50;5.03;;;3.05;;
26774;SDS011;14362;51.902;7.626;2022-11-23T07:01:53;6.68;;;3.13;;
26774;SDS011;14362;51.902;7.626;2022-11-23T07:05:55;6.22;;;2.60;;
26774;SDS011;14362;51.902;7.626;2022-11-23T07:09:56;5.28;;;2.85;;
26774;SDS011;14362;51.902;7.626;2022-11-23T07:13:58;6.15;;;2.90;;
26774;SDS011;14362;51.902;7.626;2022-11-23T07:18:00;6.50;;;3.08;;
26774;SDS011;14362;51.902;7.626;2022-11-23T07:22:02;7.03;;;2.80;;
26774;SDS011;14362;51.902;7.626;2022-11-23T07:26:03;7.20;;;2.75;;
26774;SDS011;14362;51.902;7.626;2022-11-23T07:30:05;7.68;;;2.90;;
26774;SDS011;14362;51.902;7.626;2022-11-23T07:34:09;7.07;;;2.53;;
26774;SDS011;14362;51.902;7.626;2022-11-23T07:38:11;7.00;;;2.97;;
26774;SDS011;14362;51.902;7.626;2022-11-23T07:42:12;8.70;;;2.78;;
26774;SDS011;14362;51.902;7.626;2022-11-23T07:46:14;10.38;;;2.80;;
26774;SDS011;14362;51.902;7.626;2022-11-23T07:50:17;4.25;;;2.10;;
26774;SDS011;14362;51.902;7.626;2022-11-23T07:54:18;10.98;;;2.60;;
26774;SDS011;14362;51.902;7.626;2022-11-23T07:58:20;7.85;;;2.70;;
26774;SDS011;14362;51.902;7.626;2022-11-23T08:02:21;6.47;;;2.60;;
26774;SDS011;14362;51.902;7.626;2022-11-23T08:06:24;7.43;;;2.83;;
26774;SDS011;14362;51.902;7.626;2022-11-23T08:10:26;6.15;;;2.60;;
26774;SDS011;14362;51.902;7.626;2022-11-23T08:14:28;5.70;;;2.38;;
26774;SDS011;14362;51.902;7.626;2022-11-23T08:18:29;7.60;;;2.33;;
26774;SDS011;14362;51.902;7.626;2022-11-23T08:22:32;8.52;;;2.47;;
26774;SDS011;14362;51.902;7.626;2022-11-23T08:26:33;6.45;;;2.45;;
26774;SDS011;14362;51.902;7.626;2022-11-23T08:30:35;8.07;;;3.05;;
26774;SDS011;14362;51.902;7.626;2022-11-23T08:34:37;5.93;;;2.35;;
26774;SDS011;14362;51.902;7.626;2022-11-23T08:38:39;6.45;;;2.35;;
26774;SDS011;14362;51.902;7.626;2022-11-23T08:42:41;6.28;;;2.38;;
26774;SDS011;14362;51.902;7.626;2022-11-23T08:46:42;9.45;;;2.10;;
26774;SDS011;14362;51.902;7.626;2022-11-23T08:50:44;8.32;;;2.45;;
26774;SDS011;14362;51.902;7.626;2022-11-23T08:54:46;4.63;;;1.90;;
26774;SDS011;14362;51.902;7.626;2022-11-23T08:58:48;6.18;;;1.90;;
26774;SDS011;14362;51.902;7.626;2022-11-23T09:02:49;5.05;;;1.95;;
26774;SDS011;14362;51.902;7.626;2022-11-23T09:06:51;5.35;;;1.83;;
26774;SDS011;14362;51.902;7.626;2022-11-23T09:10:57;5.82;;;1.77;;
26774;SDS011;14362;51.902;7.626;2022-11-23T09:14:59;5.22;;;1.85;;
26774;SDS011;14362;51.902;7.626;2022-11-23T09:19:01;3.97;;;1.63;;
26774;SDS011;14362;51.902;7.626;2022-11-23T09:23:02;5.35;;;1.88;;
26774;SDS011;14362;51.902;7.626;2022-11-23T09:27:05;3.75;;;1.40;;
26774;SDS011;14362;51.902;7.626;2022-11-23T09:31:06;7.13;;;2.08;;
26774;SDS011;14362;51.902;7.626;2022-11-23T09:35:08;6.38;;;1.70;;
26774;SDS011;14362;51.902;7.626;2022-11-23T09:39:09;4.32;;;2.15;;
26774;SDS011;14362;51.902;7.626;2022-11-23T09:43:27;4.97;;;1.73;;
26774;SDS011;14362;51.902;7.626;2022-11-23T09:52:29;4.55;;;1.67;;
26774;SDS011;14362;51.902;7.626;2022-11-23T09:56:31;5.93;;;2.08;;
26774;SDS011;14362;51.902;7.626;2022-11-23T10:00:37;14.02;;;2.30;;
26774;SDS011;14362;51.902;7.626;2022-11-23T10:04:43;9.75;;;2.63;;
26774;SDS011;14362;51.902;7.626;2022-11-23T10:08:51;7.18;;;2.15;;
26774;SDS011;14362;51.902;7.626;2022-11-23T10:13:02;9.07;;;2.30;;
26774;SDS011;14362;51.902;7.626;2022-11-23T10:17:14;5.90;;;1.75;;
26774;SDS011;14362;51.902;7.626;2022-11-23T10:21:26;4.65;;;1.80;;
26774;SDS011;14362;51.902;7.626;2022-11-23T10:25:36;8.82;;;2.17;;
26774;SDS011;14362;51.902;7.626;2022-11-23T10:29:41;5.78;;;1.70;;
26774;SDS011;14362;51.902;7.626;2022-11-23T10:33:49;10.00;;;2.25;;
26774;SDS011;14362;51.902;7.626;2022-11-23T10:38:08;8.15;;;1.95;;
26774;SDS011;14362;51.902;7.626;2022-11-23T10:42:13;8.63;;;2.20;;
26774;SDS011;14362;51.902;7.626;2022-11-23T10:46:22;8.45;;;1.73;;
26774;SDS011;14362;51.902;7.626;2022-11-23T10:50:31;9.85;;;2.28;;
26774;SDS011;14362;51.902;7.626;2022-11-23T10:54:37;6.60;;;2.10;;
26774;SDS011;14362;51.902;7.626;2022-11-23T10:58:47;9.75;;;2.70;;
26774;SDS011;14362;51.902;7.626;2022-11-23T11:02:50;9.40;;;2.45;;
26774;SDS011;14362;51.902;7.626;2022-11-23T11:07:08;11.00;;;2.70;;
26774;SDS011;14362;51.902;7.626;2022-11-23T11:11:19;6.25;;;2.15;;
26774;SDS011;14362;51.902;7.626;2022-11-23T11:15:24;8.05;;;2.35;;
26774;SDS011;14362;51.902;7.626;2022-11-23T11:19:26;11.75;;;2.65;;
26774;SDS011;14362;51.902;7.626;2022-11-23T11:23:32;10.50;;;2.22;;
26774;SDS011;14362;51.902;7.626;2022-11-23T11:27:34;9.87;;;3.00;;
26774;SDS011;14362;51.902;7.626;2022-11-23T11:31:40;18.25;;;2.63;;
26774;SDS011;14362;51.902;7.626;2022-11-23T11:35:49;7.82;;;2.20;;
26774;SDS011;14362;51.902;7.626;2022-11-23T11:39:56;8.90;;;2.78;;
26774;SDS011;14362;51.902;7.626;2022-11-23T11:44:05;10.35;;;2.58;;
26774;SDS011;14362;51.902;7.626;2022-11-23T11:48:11;8.30;;;2.63;;
26774;SDS011;14362;51.902;7.626;2022-11-23T11:52:18;10.35;;;2.78;;
26774;SDS011;14362;51.902;7.626;2022-11-23T11:56:26;10.75;;;2.55;;
26774;SDS011;14362;51.902;7.626;2022-11-23T12:00:32;6.93;;;1.90;;
26774;SDS011;14362;51.902;7.626;2022-11-23T12:04:39;7.80;;;2.17;;
26774;SDS011;14362;51.902;7.626;2022-11-23T12:08:46;6.88;;;2.15;;
26774;SDS011;14362;51.902;7.626;2022-11-23T12:12:57;10.88;;;2.22;;
26774;SDS011;14362;51.902;7.626;2022-11-23T12:17:01;10.23;;;2.92;;
26774;SDS011;14362;51.902;7.626;2022-11-23T12:21:21;9.35;;;2.50;;
26774;SDS011;14362;51.902;7.626;2022-11-23T12:25:37;11.00;;;3.10;;
26774;SDS011;14362;51.902;7.626;2022-11-23T12:29:48;6.43;;;2.00;;
26774;SDS011;14362;51.902;7.626;2022-11-23T12:34:04;6.70;;;2.40;;
26774;SDS011;14362;51.902;7.626;2022-11-23T12:38:19;8.75;;;2.30;;
26774;SDS011;14362;51.902;7.626;2022-11-23T12:42:38;10.48;;;2.25;;
26774;SDS011;14362;51.902;7.626;2022-11-23T12:50:51;7.75;;;1.80;;
26774;SDS011;14362;51.902;7.626;2022-11-23T12:55:00;6.40;;;1.70;;
26774;SDS011;14362;51.902;7.626;2022-11-23T12:59:12;5.90;;;2.13;;
26774;SDS011;14362;51.902;7.626;2022-11-23T13:08:01;6.35;;;2.20;;
26774;SDS011;14362;51.902;7.626;2022-11-23T13:12:27;5.90;;;2.20;;
26774;SDS011;14362;51.902;7.626;2022-11-23T13:16:49;7.65;;;1.85;;
26774;SDS011;14362;51.902;7.626;2022-11-23T13:21:08;10.63;;;2.50;;
26774;SDS011;14362;51.902;7.626;2022-11-23T13:25:20;7.55;;;2.53;;
26774;SDS011;14362;51.902;7.626;2022-11-23T13:33:48;7.03;;;2.13;;
26774;SDS011;14362;51.902;7.626;2022-11-23T13:42:23;6.68;;;2.30;;
26774;SDS011;14362;51.902;7.626;2022-11-23T13:46:26;6.13;;;2.33;;
26774;SDS011;14362;51.902;7.626;2022-11-23T13:50:28;7.65;;;2.17;;
26774;SDS011;14362;51.902;7.626;2022-11-23T13:54:31;8.85;;;2.20;;
26774;SDS011;14362;51.902;7.626;2022-11-23T13:58:37;8.40;;;3.35;;
26774;SDS011;14362;51.902;7.626;2022-11-23T14:02:49;6.47;;;2.13;;
26774;SDS011;14362;51.902;7.626;2022-11-23T14:06:51;10.55;;;2.45;;
26774;SDS011;14362;51.902;7.626;2022-11-23T14:10:58;6.78;;;2.40;;
26774;SDS011;14362;51.902;7.626;2022-11-23T14:15:02;6.50;;;2.20;;
26774;SDS011;14362;51.902;7.626;2022-11-23T14:19:11;5.63;;;2.00;;
26774;SDS011;14362;51.902;7.626;2022-11-23T14:28:10;8.60;;;2.17;;
26774;SDS011;14362;51.902;7.626;2022-11-23T14:32:25;8.45;;;2.67;;
26774;SDS011;14362;51.902;7.626;2022-11-23T14:36:38;8.38;;;2.40;;
26774;SDS011;14362;51.902;7.626;2022-11-23T14:40:47;5.55;;;2.10;;
26774;SDS011;14362;51.902;7.626;2022-11-23T14:45:02;8.50;;;2.80;;
26774;SDS011;14362;51.902;7.626;2022-11-23T14:49:09;5.00;;;1.83;;
26774;SDS011;14362;51.902;7.626;2022-11-23T14:53:14;8.65;;;2.20;;
26774;SDS011;14362;51.902;7.626;2022-11-23T14:57:15;7.75;;;2.80;;
26774;SDS011;14362;51.902;7.626;2022-11-23T15:01:20;7.88;;;2.17;;
26774;SDS011;14362;51.902;7.626;2022-11-23T15:05:26;6.20;;;2.10;;
26774;SDS011;14362;51.902;7.626;2022-11-23T15:09:33;7.00;;;2.33;;
26774;SDS011;14362;51.902;7.626;2022-11-23T15:13:42;5.45;;;2.13;;
26774;SDS011;14362;51.902;7.626;2022-11-23T15:17:53;5.38;;;2.20;;
26774;SDS011;14362;51.902;7.626;2022-11-23T15:21:56;6.18;;;2.10;;
26774;SDS011;14362;51.902;7.626;2022-11-23T15:25:58;8.50;;;2.78;;
26774;SDS011;14362;51.902;7.626;2022-11-23T15:30:12;8.32;;;3.20;;
26774;SDS011;14362;51.902;7.626;2022-11-23T15:34:16;12.82;;;6.50;;
26774;SDS011;14362;51.902;7.626;2022-11-23T15:38:18;16.08;;;6.30;;
26774;SDS011;14362;51.902;7.626;2022-11-23T15:42:21;24.05;;;8.38;;
26774;SDS011;14362;51.902;7.626;2022-11-23T15:50:29;13.60;;;5.20;;
26774;SDS011;14362;51.902;7.626;2022-11-23T15:54:32;8.25;;;4.25;;
26774;SDS011;14362;51.902;7.626;2022-11-23T15:58:35;10.07;;;3.58;;
26774;SDS011;14362;51.902;7.626;2022-11-23T16:02:37;6.15;;;2.50;;
26774;SDS011;14362;51.902;7.626;2022-11-23T16:06:40;5.53;;;2.20;;
26774;SDS011;14362;51.902;7.626;2022-11-23T16:10:51;6.70;;;2.25;;
26774;SDS011;14362;51.902;7.626;2022-11-23T16:14:54;7.88;;;2.35;;
26774;SDS011;14362;51.902;7.626;2022-11-23T16:18:57;9.88;;;4.10;;
26774;SDS011;14362;51.902;7.626;2022-11-23T16:23:00;8.35;;;2.92;;
26774;SDS011;14362;51.902;7.626;2022-11-23T16:27:10;6.70;;;2.25;;
26774;SDS011;14362;51.902;7.626;2022-11-23T16:31:23;6.65;;;2.72;;
26774;SDS011;14362;51.902;7.626;2022-11-23T16:35:27;10.43;;;2.63;;
26774;SDS011;14362;51.902;7.626;2022-11-23T16:39:29;14.07;;;8.55;;
26774;SDS011;14362;51.902;7.626;2022-11-23T16:43:31;21.02;;;12.07;;
26774;SDS011;14362;51.902;7.626;2022-11-23T16:47:32;9.35;;;5.10;;
26774;SDS011;14362;51.902;7.626;2022-11-23T16:51:34;17.70;;;9.68;;
26774;SDS011;14362;51.902;7.626;2022-11-23T16:55:37;18.95;;;8.43;;
26774;SDS011;14362;51.902;7.626;2022-11-23T16:59:38;18.75;;;11.40;;
26774;SDS011;14362;51.902;7.626;2022-11-23T17:03:39;15.30;;;9.00;;
26774;SDS011;14362;51.902;7.626;2022-11-23T17:07:42;12.82;;;6.68;;
26774;SDS011;14362;51.902;7.626;2022-11-23T17:11:45;27.60;;;12.45;;
26774;SDS011;14362;51.902;7.626;2022-11-23T17:15:49;35.78;;;15.32;;
26774;SDS011;14362;51.902;7.626;2022-11-23T17:19:51;40.70;;;14.82;;
26774;SDS011;14362;51.902;7.626;2022-11-23T17:23:52;16.55;;;5.70;;
26774;SDS011;14362;51.902;7.626;2022-11-23T17:27:55;29.55;;;15.95;;
26774;SDS011;14362;51.902;7.626;2022-11-23T17:31:59;24.88;;;11.60;;
26774;SDS011;14362;51.902;7.626;2022-11-23T17:36:00;8.25;;;3.25;;
26774;SDS011;14362;51.902;7.626;2022-11-23T17:40:02;10.07;;;3.17;;
26774;SDS011;14362;51.902;7.626;2022-11-23T17:44:06;13.68;;;7.93;;
26774;SDS011;14362;51.902;7.626;2022-11-23T17:48:08;13.05;;;5.60;;
26774;SDS011;14362;51.902;7.626;2022-11-23T17:52:11;5.85;;;2.70;;
26774;SDS011;14362;51.902;7.626;2022-11-23T17:56:14;14.32;;;5.10;;
26774;SDS011;14362;51.902;7.626;2022-11-23T18:00:19;7.40;;;2.95;;
26774;SDS011;14362;51.902;7.626;2022-11-23T18:04:22;9.43;;;3.20;;
26774;SDS011;14362;51.902;7.626;2022-11-23T18:08:23;6.20;;;2.03;;
26774;SDS011;14362;51.902;7.626;2022-11-23T18:12:25;7.25;;;2.88;;
26774;SDS011;14362;51.902;7.626;2022-11-23T18:16:27;8.00;;;1.88;;
26774;SDS011;14362;51.902;7.626;2022-11-23T18:20:29;6.55;;;1.70;;
26774;SDS011;14362;51.902;7.626;2022-11-23T18:24:30;4.55;;;1.73;;
26774;SDS011;14362;51.902;7.626;2022-11-23T18:28:32;5.47;;;1.65;;
26774;SDS011;14362;51.902;7.626;2022-11-23T18:32:34;7.93;;;2.65;;
26774;SDS011;14362;51.902;7.626;2022-11-23T18:36:36;7.03;;;2.20;;
26774;SDS011;14362;51.902;7.626;2022-11-23T18:40:37;4.97;;;1.80;;
26774;SDS011;14362;51.902;7.626;2022-11-23T18:44:39;6.38;;;2.97;;
26774;SDS011;14362;51.902;7.626;2022-11-23T18:48:42;7.15;;;3.40;;
26774;SDS011;14362;51.902;7.626;2022-11-23T18:52:43;6.72;;;2.90;;
26774;SDS011;14362;51.902;7.626;2022-11-23T18:56:45;8.48;;;3.08;;
26774;SDS011;14362;51.902;7.626;2022-11-23T19:00:47;6.50;;;1.83;;
26774;SDS011;14362;51.902;7.626;2022-11-23T19:04:50;5.30;;;2.63;;
26774;SDS011;14362;51.902;7.626;2022-11-23T19:08:52;6.40;;;2.08;;
26774;SDS011;14362;51.902;7.626;2022-11-23T19:12:55;6.77;;;2.67;;
26774;SDS011;14362;51.902;7.626;2022-11-23T19:16:57;8.77;;;2.00;;
26774;SDS011;14362;51.902;7.626;2022-11-23T19:21:00;6.93;;;2.00;;
26774;SDS011;14362;51.902;7.626;2022-11-23T19:25:01;5.20;;;1.95;;
26774;SDS011;14362;51.902;7.626;2022-11-23T19:29:02;4.93;;;2.15;;
26774;SDS011;14362;51.902;7.626;2022-11-23T19:33:04;5.78;;;2.30;;
26774;SDS011;14362;51.902;7.626;2022-11-23T19:37:07;6.05;;;2.10;;
26774;SDS011;14362;51.902;7.626;2022-11-23T19:41:08;5.68;;;2.17;;
26774;SDS011;14362;51.902;7.626;2022-11-23T19:45:10;5.93;;;2.40;;
26774;SDS011;14362;51.902;7.626;2022-11-23T19:49:11;5.90;;;2.63;;
26774;SDS011;14362;51.902;7.626;2022-11-23T19:53:14;4.85;;;2.00;;
26774;SDS011;14362;51.902;7.626;2022-11-23T19:57:15;3.40;;;2.10;;
26774;SDS011;14362;51.902;7.626;2022-11-23T20:01:17;4.43;;;2.15;;
26774;SDS011;14362;51.902;7.626;2022-11-23T20:05:20;5.15;;;2.42;;
26774;SDS011;14362;51.902;7.626;2022-11-23T20:09:23;3.53;;;1.95;;
26774;SDS011;14362;51.902;7.626;2022-11-23T20:13:26;3.83;;;2.40;;
26774;SDS011;14362;51.902;7.626;2022-11-23T20:17:28;4.22;;;1.80;;
26774;SDS011;14362;51.902;7.626;2022-11-23T20:21:30;2.95;;;1.83;;
26774;SDS011;14362;51.902;7.626;2022-11-23T20:25:34;4.28;;;1.80;;
26774;SDS011;14362;51.902;7.626;2022-11-23T20:29:36;3.60;;;2.42;;
26774;SDS011;14362;51.902;7.626;2022-11-23T20:33:39;3.97;;;2.17;;
26774;SDS011;14362;51.902;7.626;2022-11-23T20:37:40;3.88;;;2.35;;
26774;SDS011;14362;51.902;7.626;2022-11-23T20:41:43;4.50;;;2.38;;
26774;SDS011;14362;51.902;7.626;2022-11-23T20:45:44;5.00;;;2.20;;
26774;SDS011;14362;51.902;7.626;2022-11-23T20:49:46;2.70;;;2.10;;
26774;SDS011;14362;51.902;7.626;2022-11-23T20:53:48;8.20;;;2.80;;
26774;SDS011;14362;51.902;7.626;2022-11-23T20:57:52;6.40;;;2.35;;
26774;SDS011;14362;51.902;7.626;2022-11-23T21:01:54;7.55;;;3.45;;
26774;SDS011;14362;51.902;7.626;2022-11-23T21:05:55;3.50;;;2.30;;
26774;SDS011;14362;51.902;7.626;2022-11-23T21:09:57;4.03;;;2.33;;
26774;SDS011;14362;51.902;7.626;2022-11-23T21:14:00;5.15;;;2.33;;
26774;SDS011;14362;51.902;7.626;2022-11-23T21:18:07;5.55;;;2.83;;
26774;SDS011;14362;51.902;7.626;2022-11-23T21:22:09;4.80;;;2.75;;
26774;SDS011;14362;51.902;7.626;2022-11-23T21:26:12;5.25;;;2.72;;
26774;SDS011;14362;51.902;7.626;2022-11-23T21:30:15;6.07;;;2.78;;
26774;SDS011;14362;51.902;7.626;2022-11-23T21:34:17;6.43;;;3.03;;
26774;SDS011;14362;51.902;7.626;2022-11-23T21:38:24;4.60;;;2.90;;
26774;SDS011;14362;51.902;7.626;2022-11-23T21:42:30;6.63;;;3.40;;
26774;SDS011;14362;51.902;7.626;2022-11-23T21:46:32;6.47;;;3.20;;
26774;SDS011;14362;51.902;7.626;2022-11-23T21:50:34;5.05;;;2.80;;
26774;SDS011;14362;51.902;7.626;2022-11-23T21:54:36;7.47;;;3.03;;
26774;SDS011;14362;51.902;7.626;2022-11-23T21:58:37;8.48;;;3.90;;
26774;SDS011;14362;51.902;7.626;2022-11-23T22:02:41;7.03;;;3.50;;
26774;SDS011;14362;51.902;7.626;2022-11-23T22:06:42;11.25;;;4.00;;
26774;SDS011;14362;51.902;7.626;2022-11-23T22:10:44;9.25;;;3.88;;
26774;SDS011;14362;51.902;7.626;2022-11-23T22:14:45;4.63;;;3.20;;
26774;SDS011;14362;51.902;7.626;2022-11-23T22:18:48;8.30;;;4.30;;
26774;SDS011;14362;51.902;7.626;2022-11-23T22:22:50;12.05;;;6.00;;
26774;SDS011;14362;51.902;7.626;2022-11-23T22:26:52;12.15;;;6.13;;
26774;SDS011;14362;51.902;7.626;2022-11-23T22:30:53;7.63;;;3.92;;
26774;SDS011;14362;51.902;7.626;2022-11-23T22:34:56;8.05;;;3.55;;
26774;SDS011;14362;51.902;7.626;2022-11-23T22:38:58;11.73;;;4.32;;
26774;SDS011;14362;51.902;7.626;2022-11-23T22:43:00;9.00;;;4.00;;
26774;SDS011;14362;51.902;7.626;2022-11-23T22:47:02;8.75;;;3.97;;
26774;SDS011;14362;51.902;7.626;2022-11-23T22:51:05;9.02;;;4.55;;
26774;SDS011;14362;51.902;7.626;2022-11-23T22:55:07;9.85;;;4.70;;
26774;SDS011;14362;51.902;7.626;2022-11-23T22:59:09;11.02;;;4.15;;
26774;SDS011;14362;51.902;7.626;2022-11-23T23:03:11;12.98;;;4.40;;
26774;SDS011;14362;51.902;7.626;2022-11-23T23:07:14;7.97;;;4.72;;
26774;SDS011;14362;51.902;7.626;2022-11-23T23:11:15;10.98;;;4.47;;
26774;SDS011;14362;51.902;7.626;2022-11-23T23:15:17;7.72;;;3.63;;
26774;SDS011;14362;51.902;7.626;2022-11-23T23:19:18;9.15;;;4.55;;
26774;SDS011;14362;51.902;7.626;2022-11-23T23:23:21;11.38;;;4.68;;
26774;SDS011;14362;51.902;7.626;2022-11-23T23:27:23;7.85;;;4.50;;
26774;SDS011;14362;51.902;7.626;2022-11-23T23:31:24;14.27;;;4.95;;
26774;SDS011;14362;51.902;7.626;2022-11-23T23:35:27;10.15;;;4.45;;
26774;SDS011;14362;51.902;7.626;2022-11-23T23:39:29;10.68;;;4.68;;
26774;SDS011;14362;51.902;7.626;2022-11-23T23:43:31;9.18;;;4.30;;
26774;SDS011;14362;51.902;7.626;2022-11-23T23:47:32;14.85;;;5.13;;
26774;SDS011;14362;51.902;7.626;2022-11-23T23:51:34;16.58;;;4.70;;
26774;SDS011;14362;51.902;7.626;2022-11-23T23:55:37;11.52;;;4.78;;
26774;SDS011;14362;51.902;7.626;2022-11-23T23:59:38;15.30;;;4.70;;
